JAI weather

Jaipur International Airport
Jaipur, Rajasthan, India

Public forecast

Using degrees Celsius for public forecast. Weather courtesy of forecast.io.

METAR (pilot weather report)

Retrieved 2019/09/19 11:30 UTC (14 minutes ago):

VIJP 191130Z 03006KT 5000 HZ SCT030 SCT035 32/21 Q1009 NOSIG

TAF (pilot weather forecast)

Retrieved 2019/09/19 06:00 UTC (6 hours ago):

TAF VIJP 190500Z 1906/2012 09006KT 5000 HZ SCT030 SCT100 TEMPO 1909/1915 09010G20KT 1500 TSRA BKN030 FEW035CB BKN090 BECMG 1913/1914 VRB02KT 3000 HZ BR BECMG 2004/2006 09007KT 5000 HZ SCT030 BKN100 TEMPO 2008/2012 09010G20KT 1500 TSRA BKN030 FEW035CB OVC090